Time;durP1;ratioP1;P1;durP2;ratioP2;P2;SDS_P1;SDS_P2;PMS_P1;PMS_P2;Temp;Humidity;BMP_temperature;BMP_pressure;BME280_temperature;BME280_humidity;BME280_pressure;Samples;Min_cycle;Max_cycle;Signal;HPM_P1;HPM_P2
2021/04/12 00:01:17;;;;;;;0.40;0.40;;;3.20;79.70;;;;;;5017011;28;20044;-72
2021/04/12 00:03:52;;;;;;;0.50;0.43;;;3.20;79.80;;;;;;5017274;28;20032;-72
2021/04/12 00:06:23;;;;;;;0.40;0.40;;;3.20;79.70;;;;;;5017319;28;20108;-71
2021/04/12 00:09:05;;;;;;;0.50;0.50;;;3.20;79.70;;;;;;5017245;28;20105;-71
2021/04/12 00:11:48;;;;;;;0.50;0.50;;;3.20;79.70;;;;;;5017289;28;20374;-71
2021/04/12 00:14:39;;;;;;;0.40;0.40;;;3.20;79.70;;;;;;5016612;28;20131;-71
2021/04/12 00:17:13;;;;;;;0.65;0.57;;;3.20;79.80;;;;;;5017093;28;20118;-72
2021/04/12 00:20:03;;;;;;;0.98;0.68;;;3.20;79.80;;;;;;5017045;28;20026;-72
2021/04/12 00:22:41;;;;;;;0.47;0.47;;;3.20;79.80;;;;;;5016935;28;20030;-71
2021/04/12 00:25:26;;;;;;;0.50;0.50;;;3.20;79.80;;;;;;5035988;28;20174;-71
2021/04/12 00:28:00;;;;;;;0.98;0.55;;;3.20;79.80;;;;;;5056508;28;20104;-71
2021/04/12 00:30:37;;;;;;;0.43;0.40;;;3.20;79.80;;;;;;5056281;28;20018;-71
2021/04/12 00:33:10;;;;;;;0.40;0.40;;;3.20;79.90;;;;;;5055154;28;20021;-72
2021/04/12 00:35:49;;;;;;;0.60;0.60;;;3.20;79.90;;;;;;5056547;28;20486;-71
2021/04/12 00:38:29;;;;;;;1.50;0.50;;;3.10;79.90;;;;;;5056670;28;20031;-71
2021/04/12 00:41:19;;;;;;;0.50;0.50;;;3.20;79.90;;;;;;5056447;28;20051;-71
2021/04/12 00:44:06;;;;;;;0.45;0.45;;;3.10;79.90;;;;;;5055891;28;20061;-71
2021/04/12 00:46:55;;;;;;;0.47;0.40;;;3.10;80.00;;;;;;5054997;28;20029;-72
2021/04/12 00:49:27;;;;;;;0.50;0.50;;;3.00;80.00;;;;;;5056161;28;20017;-71
2021/04/12 00:52:01;;;;;;;0.40;0.40;;;3.00;80.10;;;;;;5055908;28;20143;-71
2021/04/12 00:55:04;;;;;;;0.47;0.47;;;3.00;80.10;;;;;;5056101;28;20044;-71
2021/04/12 00:57:49;;;;;;;0.40;0.40;;;3.00;80.10;;;;;;5055510;28;20021;-72
2021/04/12 01:00:22;;;;;;;0.30;0.30;;;2.90;80.10;;;;;;5055969;28;20021;-71
2021/04/12 01:03:12;;;;;;;0.55;0.55;;;3.00;80.20;;;;;;5056110;28;20033;-71
2021/04/12 01:05:59;;;;;;;0.77;0.50;;;2.90;80.20;;;;;;5055857;28;20112;-71
2021/04/12 01:08:33;;;;;;;0.30;0.30;;;2.90;80.20;;;;;;5054423;28;20105;-71
2021/04/12 01:11:48;;;;;;;0.85;0.85;;;2.90;80.20;;;;;;5055757;28;20052;-71
2021/04/12 01:14:26;;;;;;;0.30;0.30;;;2.90;80.00;;;;;;5055624;28;20032;-71
2021/04/12 01:17:31;;;;;;;0.60;0.50;;;2.80;80.00;;;;;;5055770;28;20032;-71
2021/04/12 01:20:18;;;;;;;0.40;0.40;;;2.90;80.10;;;;;;5014486;28;20440;-71
2021/04/12 01:23:24;;;;;;;0.43;0.30;;;2.80;80.10;;;;;;5055449;28;20370;-71
2021/04/12 01:26:10;;;;;;;0.63;0.60;;;2.80;80.10;;;;;;5055584;28;20043;-71
2021/04/12 01:29:33;;;;;;;0.50;0.50;;;2.80;80.30;;;;;;5054974;28;20025;-72
2021/04/12 01:32:35;;;;;;;0.65;0.50;;;2.80;80.30;;;;;;5055222;28;20021;-71
2021/04/12 01:35:22;;;;;;;0.32;0.32;;;2.80;80.30;;;;;;5055173;28;20040;-71
2021/04/12 01:38:04;;;;;;;0.60;0.47;;;2.80;80.30;;;;;;5055171;28;20032;-71
2021/04/12 01:40:51;;;;;;;0.57;0.57;;;2.80;80.30;;;;;;5055421;28;20112;-71
2021/04/12 01:43:34;;;;;;;0.63;0.63;;;2.80;80.40;;;;;;5055188;28;20115;-71
2021/04/12 01:46:18;;;;;;;0.55;0.55;;;2.90;80.50;;;;;;5055020;28;20024;-71
2021/04/12 01:49:00;;;;;;;0.45;0.40;;;2.90;80.50;;;;;;5055107;28;20033;-71
2021/04/12 01:52:04;;;;;;;0.60;0.60;;;2.90;80.50;;;;;;5054978;28;20112;-71
2021/04/12 01:55:14;;;;;;;0.43;0.43;;;2.80;80.40;;;;;;5055075;28;20032;-71
2021/04/12 01:58:03;;;;;;;0.80;0.80;;;2.80;80.40;;;;;;5054481;28;20029;-71
2021/04/12 02:00:41;;;;;;;0.52;0.52;;;2.70;80.50;;;;;;5054326;28;20056;-72
2021/04/12 02:03:14;;;;;;;0.40;0.40;;;2.70;80.60;;;;;;5054866;28;20029;-72
2021/04/12 02:06:17;;;;;;;0.55;0.47;;;2.70;80.70;;;;;;5054777;28;20036;-71
2021/04/12 02:09:09;;;;;;;0.43;0.40;;;2.70;80.70;;;;;;5030130;28;20389;-72
2021/04/12 02:11:34;;;;;;;1.25;0.50;;;2.70;80.90;;;;;;5054317;28;20370;-72
2021/04/12 02:14:35;;;;;;;0.38;0.38;;;2.70;80.80;;;;;;5054384;28;20037;-71
2021/04/12 02:17:28;;;;;;;0.60;0.60;;;2.60;80.70;;;;;;5054424;28;20063;-72
2021/04/12 02:20:22;;;;;;;0.57;0.57;;;2.60;80.80;;;;;;5052788;28;20025;-71
2021/04/12 02:23:12;;;;;;;0.30;0.30;;;2.50;80.80;;;;;;5054223;28;20052;-71
2021/04/12 02:26:11;;;;;;;0.50;0.50;;;2.50;81.00;;;;;;5054053;28;20021;-71
2021/04/12 02:28:58;;;;;;;0.55;0.55;;;2.40;80.90;;;;;;5054490;28;20097;-71
2021/04/12 02:31:43;;;;;;;0.57;0.57;;;2.40;81.00;;;;;;5054252;28;20482;-71
2021/04/12 02:34:21;;;;;;;0.30;0.30;;;2.40;81.00;;;;;;5054220;28;20481;-71
2021/04/12 02:37:32;;;;;;;0.63;0.60;;;2.40;80.90;;;;;;5052797;28;20021;-71
2021/04/12 02:40:25;;;;;;;0.70;0.70;;;2.40;80.80;;;;;;5053697;28;20032;-71
2021/04/12 02:43:39;;;;;;;0.40;0.40;;;2.40;80.80;;;;;;5054066;28;20117;-71
2021/04/12 02:46:29;;;;;;;0.30;0.30;;;2.40;80.70;;;;;;4973368;28;20062;-71
2021/04/12 02:49:16;;;;;;;0.68;0.40;;;2.40;80.70;;;;;;4973282;28;20045;-72
2021/04/12 02:52:09;;;;;;;0.73;0.52;;;2.50;80.70;;;;;;4973123;28;20117;-71
2021/04/12 02:55:19;;;;;;;0.50;0.50;;;2.50;80.70;;;;;;4972641;28;20507;-71
2021/04/12 02:58:12;;;;;;;0.40;0.40;;;2.50;80.70;;;;;;4950836;28;20551;-71
2021/04/12 03:00:57;;;;;;;0.73;0.68;;;2.50;80.80;;;;;;4973069;28;20090;-73
2021/04/12 03:04:02;;;;;;;0.85;0.50;;;2.50;80.80;;;;;;4973153;28;20101;-73
2021/04/12 03:06:49;;;;;;;1.63;0.50;;;2.50;80.80;;;;;;4972891;28;20035;-73
2021/04/12 03:09:41;;;;;;;0.28;0.28;;;2.40;80.90;;;;;;4972461;28;20058;-73
2021/04/12 03:12:50;;;;;;;0.45;0.45;;;2.50;81.00;;;;;;4972871;28;20042;-73
2021/04/12 03:15:21;;;;;;;0.50;0.40;;;2.40;80.90;;;;;;4972717;28;20038;-73
2021/04/12 03:18:15;;;;;;;0.60;0.60;;;2.40;81.00;;;;;;5049818;28;20437;-73
2021/04/12 03:21:05;;;;;;;0.70;0.70;;;2.40;81.00;;;;;;5053453;28;20025;-74
2021/04/12 03:23:54;;;;;;;0.40;0.40;;;2.50;80.90;;;;;;5051716;28;20033;-73
2021/04/12 03:26:44;;;;;;;0.85;0.45;;;2.50;80.80;;;;;;5053188;28;20104;-73
2021/04/12 03:29:18;;;;;;;0.47;0.47;;;2.50;80.80;;;;;;5053314;28;20021;-74
2021/04/12 03:32:03;;;;;;;0.60;0.60;;;2.50;80.90;;;;;;5052508;28;20074;-73
2021/04/12 03:34:52;;;;;;;1.15;0.90;;;2.50;81.10;;;;;;5053113;28;20044;-73
2021/04/12 03:37:36;;;;;;;0.47;0.47;;;2.50;81.10;;;;;;5052628;28;20029;-73
2021/04/12 03:40:23;;;;;;;0.52;0.47;;;2.50;81.20;;;;;;5053002;28;20838;-73
2021/04/12 03:43:20;;;;;;;0.63;0.63;;;2.50;81.30;;;;;;5053206;28;20025;-71
2021/04/12 03:46:18;;;;;;;0.70;0.70;;;2.50;81.50;;;;;;5053108;28;20025;-73
2021/04/12 03:49:08;;;;;;;0.52;0.50;;;2.60;81.40;;;;;;5052995;28;20075;-73
2021/04/12 03:51:48;;;;;;;0.63;0.40;;;2.60;81.30;;;;;;5052358;28;20029;-72
2021/04/12 03:54:30;;;;;;;0.55;0.43;;;2.60;81.30;;;;;;5052850;28;20037;-72
2021/04/12 03:57:32;;;;;;;0.32;0.32;;;2.60;81.20;;;;;;5052897;28;20478;-73
2021/04/12 04:00:08;;;;;;;0.40;0.40;;;2.70;81.20;;;;;;5053063;28;20103;-73
2021/04/12 04:02:52;;;;;;;0.43;0.43;;;2.70;81.20;;;;;;5052871;28;20021;-73
2021/04/12 04:05:53;;;;;;;0.30;0.30;;;2.60;81.20;;;;;;5051491;28;20021;-73
2021/04/12 04:09:08;;;;;;;0.47;0.40;;;2.60;81.40;;;;;;5052835;28;20033;-73
2021/04/12 04:11:58;;;;;;;0.88;0.50;;;2.60;81.50;;;;;;5052766;28;20037;-73
2021/04/12 04:14:45;;;;;;;0.50;0.50;;;2.60;81.50;;;;;;5052691;28;20040;-73
2021/04/12 04:17:41;;;;;;;0.80;0.30;;;2.60;81.50;;;;;;5052641;28;20025;-73
2021/04/12 04:20:48;;;;;;;1.25;0.90;;;2.60;81.50;;;;;;5052810;28;20068;-73
2021/04/12 04:23:21;;;;;;;0.50;0.50;;;2.70;81.50;;;;;;5052681;28;20029;-73
2021/04/12 04:26:09;;;;;;;0.60;0.60;;;2.80;81.40;;;;;;5052575;28;20056;-73
2021/04/12 04:29:10;;;;;;;0.40;0.40;;;2.80;81.30;;;;;;5052504;28;20377;-73
2021/04/12 04:32:03;;;;;;;0.47;0.47;;;2.90;81.30;;;;;;5052580;28;20021;-73
2021/04/12 04:35:02;;;;;;;0.43;0.43;;;2.90;81.30;;;;;;5052381;28;20048;-73
2021/04/12 04:37:44;;;;;;;0.67;0.67;;;2.90;81.30;;;;;;5052510;28;20043;-73
2021/04/12 04:40:25;;;;;;;0.75;0.68;;;2.80;81.40;;;;;;5052439;28;20028;-73
2021/04/12 04:43:08;;;;;;;0.57;0.57;;;2.70;81.50;;;;;;5054397;28;20543;-74
2021/04/12 04:45:49;;;;;;;0.57;0.57;;;2.60;81.70;;;;;;5056516;28;20029;-73
2021/04/12 04:48:42;;;;;;;0.60;0.60;;;2.50;81.90;;;;;;5054854;28;20025;-73
2021/04/12 04:51:26;;;;;;;1.33;0.63;;;2.50;82.00;;;;;;5055673;28;20028;-73
2021/04/12 04:54:00;;;;;;;0.50;0.50;;;2.40;82.00;;;;;;5055801;28;20045;-73
2021/04/12 04:56:48;;;;;;;0.60;0.60;;;2.30;82.10;;;;;;5056111;28;20108;-73
2021/04/12 04:59:14;;;;;;;0.50;0.50;;;2.30;82.20;;;;;;5056055;28;20027;-73
2021/04/12 05:01:58;;;;;;;0.43;0.43;;;2.20;82.20;;;;;;5055764;28;20107;-73
2021/04/12 05:05:08;;;;;;;0.60;0.60;;;2.20;82.20;;;;;;5055648;28;20029;-73
2021/04/12 05:08:16;;;;;;;0.60;0.60;;;2.20;82.20;;;;;;5055834;28;20025;-73
2021/04/12 05:11:39;;;;;;;0.70;0.70;;;2.20;82.10;;;;;;5055666;28;20031;-73
2021/04/12 05:14:50;;;;;;;1.35;0.90;;;2.20;82.10;;;;;;5038295;28;20131;-73
2021/04/12 05:17:39;;;;;;;0.60;0.60;;;2.20;82.00;;;;;;5055752;28;20046;-73
2021/04/12 05:20:37;;;;;;;0.60;0.60;;;2.30;81.80;;;;;;5055181;28;20496;-73
2021/04/12 05:23:37;;;;;;;0.60;0.60;;;2.40;81.70;;;;;;5055454;28;20029;-73
2021/04/12 05:26:36;;;;;;;0.50;0.50;;;2.50;81.50;;;;;;5055521;28;20128;-72
2021/04/12 05:29:29;;;;;;;0.40;0.40;;;2.50;81.50;;;;;;5055355;28;20523;-71
2021/04/12 05:32:32;;;;;;;0.50;0.50;;;2.50;81.30;;;;;;5014338;28;20037;-71
2021/04/12 05:35:03;;;;;;;0.63;0.63;;;2.50;81.30;;;;;;5054659;28;20040;-72
2021/04/12 05:37:35;;;;;;;0.50;0.50;;;2.50;81.40;;;;;;5055019;28;20032;-71
2021/04/12 05:40:08;;;;;;;0.50;0.50;;;2.50;81.50;;;;;;5055125;28;20096;-72
2021/04/12 05:43:03;;;;;;;0.75;0.55;;;2.50;81.60;;;;;;5055185;28;20044;-72
2021/04/12 05:45:38;;;;;;;0.73;0.73;;;2.50;81.60;;;;;;5026288;28;20044;-73
2021/04/12 05:48:23;;;;;;;0.60;0.60;;;2.50;81.70;;;;;;5054408;28;20124;-73
2021/04/12 05:51:00;;;;;;;0.80;0.80;;;2.50;81.70;;;;;;5054783;28;20537;-72
2021/04/12 05:53:46;;;;;;;0.70;0.70;;;2.50;81.80;;;;;;5053480;28;20053;-72
2021/04/12 05:56:38;;;;;;;0.50;0.50;;;2.40;81.80;;;;;;5055105;28;20029;-72
2021/04/12 05:59:30;;;;;;;0.65;0.65;;;2.50;81.90;;;;;;5054754;28;20049;-71
2021/04/12 06:02:18;;;;;;;0.52;0.40;;;2.50;82.60;;;;;;5054223;28;20100;-72
2021/04/12 06:05:04;;;;;;;0.40;0.40;;;2.50;81.90;;;;;;5054676;28;20028;-72
2021/04/12 06:07:48;;;;;;;0.50;0.50;;;2.50;81.80;;;;;;5054878;28;20021;-73
2021/04/12 06:10:16;;;;;;;0.40;0.40;;;2.60;81.70;;;;;;5054519;28;20029;-73
2021/04/12 06:13:33;;;;;;;0.45;0.45;;;2.60;81.60;;;;;;5027466;28;20022;-73
2021/04/12 06:16:14;;;;;;;0.43;0.43;;;2.70;81.50;;;;;;5026162;28;20038;-73
2021/04/12 06:18:54;;;;;;;0.47;0.43;;;2.80;81.60;;;;;;5024504;28;20088;-72
2021/04/12 06:21:58;;;;;;;0.50;0.50;;;2.80;81.40;;;;;;5033034;28;20033;-72
2021/04/12 06:24:34;;;;;;;0.65;0.50;;;3.00;81.40;;;;;;4993382;28;20040;-73
2021/04/12 06:27:11;;;;;;;0.52;0.47;;;3.10;81.30;;;;;;5029671;28;20110;-72
2021/04/12 06:30:03;;;;;;;0.85;0.52;;;3.20;81.20;;;;;;5030308;28;20414;-72
2021/04/12 06:32:44;;;;;;;0.82;0.82;;;3.30;81.20;;;;;;5032354;28;20115;-71
2021/04/12 06:35:39;;;;;;;1.35;0.70;;;3.40;81.00;;;;;;5027824;28;20737;-71
2021/04/12 06:38:34;;;;;;;0.85;0.85;;;3.60;80.80;;;;;;5033462;28;20462;-71
2021/04/12 06:41:12;;;;;;;0.47;0.47;;;3.80;80.50;;;;;;5033906;28;20045;-72
2021/04/12 06:44:24;;;;;;;0.70;0.70;;;4.00;80.20;;;;;;5033753;28;20087;-71
2021/04/12 06:47:17;;;;;;;1.05;0.98;;;4.00;80.20;;;;;;5031864;28;20456;-73
2021/04/12 06:50:18;;;;;;;0.38;0.38;;;4.00;80.70;;;;;;5016740;28;20045;-72
2021/04/12 06:53:22;;;;;;;0.77;0.68;;;4.00;80.90;;;;;;5032301;28;20320;-72
2021/04/12 06:55:56;;;;;;;0.68;0.60;;;4.00;81.10;;;;;;5032918;28;20476;-72
2021/04/12 06:58:37;;;;;;;1.08;1.00;;;4.00;81.40;;;;;;5028472;28;20021;-71
2021/04/12 07:01:40;;;;;;;0.75;0.75;;;4.00;81.40;;;;;;5032478;28;20446;-71
2021/04/12 07:04:18;;;;;;;0.70;0.70;;;4.00;81.30;;;;;;4952970;29;20042;-71
2021/04/12 07:07:11;;;;;;;0.60;0.60;;;4.00;81.40;;;;;;4953323;28;20512;-71
2021/04/12 07:10:01;;;;;;;0.43;0.43;;;4.10;81.50;;;;;;4953317;29;20039;-71
2021/04/12 07:12:54;;;;;;;;;;;4.20;81.50;;;;;;4953803;29;20035;-71
2021/04/12 07:15:50;;;;;;;0.47;0.47;;;4.20;81.30;;;;;;4952859;29;19918;-71
2021/04/12 07:18:34;;;;;;;0.38;0.38;;;4.30;81.20;;;;;;4953371;29;20034;-71
2021/04/12 07:21:18;;;;;;;0.57;0.57;;;4.40;81.20;;;;;;4953094;29;20031;-71
2021/04/12 07:23:58;;;;;;;0.52;0.52;;;4.40;81.30;;;;;;4953223;29;20118;-71
2021/04/12 07:26:53;;;;;;;0.60;0.60;;;4.50;81.30;;;;;;4953212;29;20440;-70
2021/04/12 07:29:37;;;;;;;0.95;0.80;;;4.50;81.20;;;;;;4952598;29;20547;-71
2021/04/12 07:32:32;;;;;;;0.60;0.60;;;4.60;81.20;;;;;;4953258;29;20031;-70
2021/04/12 07:35:07;;;;;;;0.40;0.40;;;4.60;81.20;;;;;;4952953;29;20061;-70
2021/04/12 07:38:09;;;;;;;0.60;0.55;;;4.70;81.30;;;;;;4950657;28;20436;-70
2021/04/12 07:41:20;;;;;;;0.57;0.57;;;4.80;81.20;;;;;;4998693;28;20038;-70
2021/04/12 07:44:04;;;;;;;0.57;0.57;;;4.80;81.10;;;;;;5032249;28;20028;-70
2021/04/12 07:47:10;;;;;;;0.47;0.47;;;5.00;81.00;;;;;;5033024;28;20075;-70
2021/04/12 07:50:02;;;;;;;0.55;0.55;;;5.10;80.80;;;;;;4952796;29;20039;-70
2021/04/12 07:53:09;;;;;;;0.50;0.50;;;5.20;80.70;;;;;;4952599;29;20204;-70
2021/04/12 07:56:05;;;;;;;0.55;0.55;;;5.30;80.70;;;;;;4952497;28;20054;-69
2021/04/12 07:59:08;;;;;;;0.60;0.60;;;5.40;80.60;;;;;;4952387;29;20058;-69
2021/04/12 08:01:52;;;;;;;0.60;0.60;;;5.60;80.30;;;;;;4952950;29;20047;-70
2021/04/12 08:04:55;;;;;;;1.00;0.90;;;5.80;80.60;;;;;;4952792;29;20031;-70
2021/04/12 08:07:58;;;;;;;0.60;0.60;;;6.20;79.40;;;;;;4951239;28;20106;-70
2021/04/12 08:10:26;;;;;;;0.70;0.70;;;6.40;79.00;;;;;;4957143;28;20041;-70
2021/04/12 08:13:19;;;;;;;0.98;0.98;;;6.50;79.00;;;;;;4970690;28;20081;-70
2021/04/12 08:16:21;;;;;;;1.27;0.77;;;6.50;78.90;;;;;;4972186;28;20126;-70
2021/04/12 08:19:27;;;;;;;0.80;0.75;;;6.50;78.90;;;;;;4975569;28;20034;-69
2021/04/12 08:22:11;;;;;;;0.85;0.85;;;6.30;79.30;;;;;;4974919;28;20030;-70
2021/04/12 08:25:10;;;;;;;0.70;0.70;;;6.10;80.00;;;;;;4975899;28;20053;-70
2021/04/12 08:27:51;;;;;;;0.85;0.80;;;6.10;80.20;;;;;;5016295;28;20056;-70
2021/04/12 08:30:50;;;;;;;0.82;0.80;;;6.10;80.20;;;;;;5016828;28;20069;-70
2021/04/12 08:33:43;;;;;;;0.73;0.73;;;6.30;80.10;;;;;;5016497;28;20091;-70
2021/04/12 08:36:46;;;;;;;0.45;0.45;;;6.50;79.60;;;;;;5016626;28;20080;-70
2021/04/12 08:39:45;;;;;;;0.88;0.77;;;6.80;79.10;;;;;;5034390;28;20079;-70
2021/04/12 08:42:39;;;;;;;0.63;0.63;;;6.90;78.40;;;;;;5035652;28;20021;-70
2021/04/12 08:45:20;;;;;;;0.60;0.60;;;7.10;78.30;;;;;;5036116;28;20022;-70
2021/04/12 08:48:15;;;;;;;0.68;0.68;;;7.30;77.60;;;;;;5036349;28;20493;-70
2021/04/12 08:51:25;;;;;;;0.77;0.70;;;7.30;77.50;;;;;;5036193;28;20017;-70
2021/04/12 08:54:02;;;;;;;0.95;0.63;;;7.10;77.80;;;;;;5035914;28;20042;-70
2021/04/12 08:56:57;;;;;;;0.70;0.70;;;7.10;77.70;;;;;;5035507;28;20031;-70
2021/04/12 08:59:55;;;;;;;0.70;0.70;;;6.90;78.10;;;;;;5035902;28;20040;-70
2021/04/12 09:02:47;;;;;;;0.80;0.70;;;6.80;78.30;;;;;;5035803;28;20026;-70
2021/04/12 09:05:33;;;;;;;1.00;0.90;;;6.70;78.50;;;;;;5035696;28;20099;-69
2021/04/12 09:08:14;;;;;;;1.15;1.05;;;6.70;78.40;;;;;;5035798;28;20021;-69
2021/04/12 09:11:12;;;;;;;0.57;0.57;;;6.70;78.20;;;;;;5014337;28;20030;-70
2021/04/12 09:13:59;;;;;;;0.80;0.80;;;6.60;78.40;;;;;;5015851;28;20026;-70
2021/04/12 09:16:47;;;;;;;1.35;0.90;;;6.60;78.30;;;;;;5016030;28;20026;-70
2021/04/12 09:19:43;;;;;;;0.98;0.80;;;6.70;78.20;;;;;;5016246;28;20489;-69
2021/04/12 09:22:41;;;;;;;0.80;0.75;;;6.70;78.30;;;;;;5015709;28;20041;-70
2021/04/12 09:25:31;;;;;;;0.80;0.80;;;6.90;78.20;;;;;;5015521;28;20061;-70
2021/04/12 09:28:46;;;;;;;0.95;0.70;;;7.10;77.40;;;;;;5015221;28;20129;-70
2021/04/12 09:31:49;;;;;;;0.50;0.50;;;7.30;76.50;;;;;;5006190;28;20386;-70
2021/04/12 09:34:40;;;;;;;1.00;1.00;;;7.50;76.40;;;;;;5035160;28;20343;-69
2021/04/12 09:37:44;;;;;;;0.70;0.70;;;7.50;76.20;;;;;;5035228;28;20034;-70
2021/04/12 09:40:28;;;;;;;0.60;0.60;;;7.50;76.10;;;;;;5034642;28;20030;-70
2021/04/12 09:43:11;;;;;;;0.70;0.70;;;7.60;76.70;;;;;;5035032;28;20021;-70
2021/04/12 09:46:10;;;;;;;0.65;0.65;;;7.50;76.70;;;;;;5035185;28;20022;-70
2021/04/12 09:49:00;;;;;;;0.63;0.55;;;7.50;76.80;;;;;;5034983;28;20101;-72
2021/04/12 09:51:55;;;;;;;0.47;0.47;;;7.40;76.90;;;;;;5034804;28;20025;-70
2021/04/12 09:54:50;;;;;;;0.90;0.90;;;7.50;77.00;;;;;;5034436;28;20088;-71
2021/04/12 09:57:34;;;;;;;1.00;1.00;;;7.70;76.70;;;;;;5034791;28;20018;-70
2021/04/12 10:00:26;;;;;;;1.02;1.00;;;7.90;76.10;;;;;;5034831;28;20032;-70
2021/04/12 10:03:16;;;;;;;1.40;1.30;;;7.90;76.00;;;;;;5034659;28;20467;-70
2021/04/12 10:06:19;;;;;;;1.60;1.38;;;7.80;76.00;;;;;;5034597;28;20021;-70
2021/04/12 10:08:51;;;;;;;1.27;1.10;;;7.60;76.50;;;;;;5034261;28;20037;-70
2021/04/12 10:11:20;;;;;;;1.23;1.10;;;7.60;76.80;;;;;;5034587;28;20029;-71
2021/04/12 10:13:57;;;;;;;1.77;1.35;;;7.60;76.80;;;;;;5034365;28;20030;-70
2021/04/12 10:16:26;;;;;;;1.88;1.70;;;7.50;76.70;;;;;;5033462;28;20026;-70
2021/04/12 10:19:21;;;;;;;1.92;1.58;;;7.40;76.80;;;;;;5034469;28;20060;-70
2021/04/12 10:22:10;;;;;;;1.67;1.58;;;7.50;76.50;;;;;;5034494;28;20072;-70
2021/04/12 10:24:55;;;;;;;1.70;1.38;;;7.50;76.30;;;;;;5034076;28;20029;-69
2021/04/12 10:27:44;;;;;;;1.13;1.10;;;7.50;76.60;;;;;;5034400;28;20564;-70
2021/04/12 10:30:31;;;;;;;0.93;0.93;;;7.80;76.40;;;;;;5034268;28;20045;-69
2021/04/12 10:33:02;;;;;;;0.95;0.95;;;8.10;75.50;;;;;;5034201;28;20014;-69
2021/04/12 10:35:40;;;;;;;1.13;1.08;;;7.90;75.10;;;;;;5034079;28;20079;-71
2021/04/12 10:38:21;;;;;;;1.00;1.00;;;7.50;75.80;;;;;;5033735;28;20030;-70
2021/04/12 10:40:53;;;;;;;0.90;0.90;;;7.20;76.50;;;;;;5033876;28;20096;-70
2021/04/12 10:43:40;;;;;;;0.73;0.63;;;6.90;77.40;;;;;;5034124;28;20049;-70
2021/04/12 10:46:25;;;;;;;0.70;0.70;;;7.00;77.60;;;;;;5033939;28;20470;-70
2021/04/12 10:49:17;;;;;;;0.73;0.73;;;7.10;78.00;;;;;;5023035;28;20033;-70
2021/04/12 10:51:46;;;;;;;0.70;0.70;;;7.10;77.30;;;;;;5032913;28;20041;-71
2021/04/12 10:54:40;;;;;;;0.60;0.60;;;7.20;77.30;;;;;;5033119;28;20025;-71
2021/04/12 10:57:21;;;;;;;0.43;0.43;;;7.40;76.80;;;;;;5013851;28;20156;-71
2021/04/12 11:00:18;;;;;;;0.55;0.55;;;7.30;76.70;;;;;;5013931;28;20034;-71
2021/04/12 11:03:13;;;;;;;0.47;0.47;;;7.30;76.70;;;;;;5013789;28;20069;-71
2021/04/12 11:05:45;;;;;;;0.70;0.70;;;7.20;77.00;;;;;;5014085;28;20018;-71
2021/04/12 11:08:26;;;;;;;0.70;0.70;;;7.10;77.10;;;;;;5013538;28;20028;-70
2021/04/12 11:11:19;;;;;;;0.65;0.65;;;7.00;77.60;;;;;;5012506;28;20049;-71
2021/04/12 11:14:00;;;;;;;0.60;0.60;;;7.00;77.50;;;;;;5013783;28;20061;-70
2021/04/12 11:16:39;;;;;;;0.73;0.57;;;7.20;77.30;;;;;;5013564;28;20022;-70
2021/04/12 11:19:21;;;;;;;0.47;0.47;;;7.40;76.80;;;;;;5032568;28;20040;-71
2021/04/12 11:22:23;;;;;;;0.32;0.32;;;7.40;76.40;;;;;;5032948;28;20302;-70
2021/04/12 11:25:33;;;;;;;0.70;0.70;;;7.50;76.30;;;;;;5033304;28;20018;-70
2021/04/12 11:28:10;;;;;;;0.68;0.68;;;7.80;75.50;;;;;;5033299;28;20501;-70
2021/04/12 11:30:56;;;;;;;0.60;0.60;;;8.10;75.20;;;;;;5033025;28;20029;-70
2021/04/12 11:33:31;;;;;;;0.63;0.63;;;8.60;74.70;;;;;;5033124;28;20017;-70
2021/04/12 11:36:14;;;;;;;0.70;0.70;;;8.70;73.60;;;;;;5033023;28;20466;-70
2021/04/12 11:38:48;;;;;;;0.70;0.70;;;8.60;73.80;;;;;;5033233;28;20044;-70
2021/04/12 11:41:33;;;;;;;0.60;0.60;;;8.30;74.30;;;;;;5033282;28;20022;-71
2021/04/12 11:44:06;;;;;;;0.80;0.80;;;8.20;74.60;;;;;;5033119;28;20422;-71
2021/04/12 11:46:57;;;;;;;0.50;0.50;;;8.00;74.90;;;;;;5033152;28;20083;-71
2021/04/12 11:49:47;;;;;;;0.50;0.50;;;8.00;75.00;;;;;;5032988;28;20030;-71
2021/04/12 11:52:18;;;;;;;;;;;8.40;74.60;;;;;;5031977;28;20560;-71
2021/04/12 11:55:04;;;;;;;0.80;0.80;;;8.80;74.20;;;;;;5032950;28;19924;-71
2021/04/12 11:58:14;;;;;;;0.60;0.60;;;9.40;73.20;;;;;;5028965;28;20084;-71
2021/04/12 12:01:10;;;;;;;0.82;0.80;;;10.10;72.40;;;;;;5011252;28;20033;-71
2021/04/12 12:03:59;;;;;;;0.90;0.90;;;10.40;71.50;;;;;;5011360;28;20500;-72
2021/04/12 12:06:24;;;;;;;1.10;1.00;;;10.30;71.40;;;;;;5010568;28;20042;-72
2021/04/12 12:09:15;;;;;;;1.40;1.30;;;9.80;72.10;;;;;;5006645;28;20284;-72
2021/04/12 12:12:09;;;;;;;1.23;1.08;;;9.30;73.40;;;;;;4989776;28;20046;-72
2021/04/12 12:14:44;;;;;;;0.90;0.90;;;8.80;73.80;;;;;;4990869;28;20035;-72
2021/04/12 12:17:42;;;;;;;1.35;1.10;;;8.40;74.60;;;;;;4990704;28;20030;-72
2021/04/12 12:20:18;;;;;;;1.10;1.10;;;8.10;75.00;;;;;;4990571;28;20037;-71
2021/04/12 12:22:57;;;;;;;1.10;0.98;;;7.80;75.20;;;;;;4991152;28;20038;-72
2021/04/12 12:25:37;;;;;;;1.23;1.00;;;7.80;75.30;;;;;;4991093;28;20105;-72
2021/04/12 12:28:09;;;;;;;0.70;0.70;;;7.80;74.90;;;;;;4991487;28;20125;-72
2021/04/12 12:30:52;;;;;;;0.65;0.65;;;7.90;74.70;;;;;;4999058;28;20038;-72
2021/04/12 12:33:42;;;;;;;0.82;0.82;;;8.30;74.60;;;;;;5032600;28;20079;-72
2021/04/12 12:36:10;;;;;;;1.17;0.90;;;8.60;72.80;;;;;;5032831;28;20455;-71
2021/04/12 12:38:36;;;;;;;1.50;1.40;;;8.60;72.60;;;;;;5032530;28;20104;-73
2021/04/12 12:41:10;;;;;;;1.38;1.27;;;8.30;72.20;;;;;;5032011;28;20117;-72
2021/04/12 12:43:38;;;;;;;1.70;1.60;;;7.70;72.70;;;;;;5032646;28;20030;-72
2021/04/12 12:46:24;;;;;;;1.42;1.30;;;6.70;75.00;;;;;;5032620;28;20029;-72
2021/04/12 12:48:53;;;;;;;1.70;1.60;;;5.80;76.80;;;;;;5032244;28;20029;-74
2021/04/12 12:51:26;;;;;;;1.90;1.80;;;4.90;78.90;;;;;;5032606;28;20072;-71
2021/04/12 12:54:01;;;;;;;1.58;1.48;;;4.30;80.20;;;;;;5027107;28;20056;-71
2021/04/12 12:56:30;;;;;;;0.90;0.90;;;4.00;80.60;;;;;;5031791;28;20474;-72
2021/04/12 12:59:01;;;;;;;1.17;1.15;;;4.00;80.20;;;;;;5032311;28;20160;-72
2021/04/12 13:01:29;;;;;;;1.75;1.30;;;4.10;79.30;;;;;;5032118;28;20029;-73
2021/04/12 13:04:14;;;;;;;1.90;1.80;;;4.20;78.60;;;;;;5034115;28;20445;-71
2021/04/12 13:06:41;;;;;;;1.58;1.38;;;4.20;78.30;;;;;;5035743;28;20026;-71
2021/04/12 13:09:21;;;;;;;0.80;0.80;;;4.30;78.20;;;;;;5035290;28;20029;-71
2021/04/12 13:11:50;;;;;;;0.85;0.80;;;4.40;77.90;;;;;;5035762;28;20056;-71
2021/04/12 13:14:48;;;;;;;0.52;0.52;;;4.50;77.80;;;;;;5035411;28;20466;-71
2021/04/12 13:17:28;;;;;;;1.02;1.00;;;5.00;77.30;;;;;;5032070;28;20033;-70
2021/04/12 13:19:58;;;;;;;0.73;0.73;;;5.80;76.10;;;;;;5035625;28;20052;-74
2021/04/12 13:22:32;;;;;;;0.90;0.90;;;6.00;75.10;;;;;;5035009;28;20433;-72
2021/04/12 13:25:35;;;;;;;1.27;1.02;;;5.90;75.40;;;;;;5033837;28;20021;-71
2021/04/12 13:28:17;;;;;;;0.63;0.63;;;5.90;75.70;;;;;;5035449;28;20101;-70
2021/04/12 13:30:56;;;;;;;1.00;0.90;;;6.00;75.90;;;;;;5035468;28;20025;-70
2021/04/12 13:33:40;;;;;;;1.33;0.93;;;6.00;75.70;;;;;;5034885;28;20095;-71
2021/04/12 13:36:12;;;;;;;0.70;0.70;;;6.10;75.50;;;;;;5034988;28;20072;-71
2021/04/12 13:38:40;;;;;;;0.52;0.52;;;6.10;75.60;;;;;;5035104;28;20021;-71
2021/04/12 13:41:14;;;;;;;0.80;0.80;;;6.20;75.50;;;;;;5035112;28;20018;-71
2021/04/12 13:43:44;;;;;;;1.30;0.65;;;6.20;75.50;;;;;;5035201;28;20513;-72
2021/04/12 13:46:27;;;;;;;0.77;0.60;;;6.20;75.80;;;;;;5033249;28;20022;-71
2021/04/12 13:49:09;;;;;;;0.70;0.70;;;6.20;75.80;;;;;;5015710;28;20432;-72
2021/04/12 13:51:45;;;;;;;0.90;0.60;;;6.10;76.30;;;;;;5033381;28;20109;-71
2021/04/12 13:54:26;;;;;;;0.57;0.57;;;6.20;76.10;;;;;;5034649;28;20389;-70
2021/04/12 13:57:01;;;;;;;0.47;0.47;;;6.50;75.80;;;;;;5034794;28;20032;-70
2021/04/12 13:59:39;;;;;;;0.60;0.60;;;6.60;75.40;;;;;;5034856;28;20021;-70
2021/04/12 14:02:35;;;;;;;0.50;0.50;;;6.60;75.50;;;;;;5034371;28;20474;-70
2021/04/12 14:05:08;;;;;;;0.40;0.40;;;6.80;75.30;;;;;;4973953;28;20097;-70
2021/04/12 14:07:45;;;;;;;0.50;0.50;;;7.00;75.40;;;;;;4973989;28;20047;-69
2021/04/12 14:10:23;;;;;;;0.57;0.57;;;7.60;74.70;;;;;;4973978;28;20125;-71
2021/04/12 14:13:16;;;;;;;0.57;0.57;;;8.40;73.30;;;;;;4973893;28;20045;-71
2021/04/12 14:15:53;;;;;;;0.60;0.60;;;9.00;72.30;;;;;;4972659;28;20101;-71
2021/04/12 14:18:59;;;;;;;0.93;0.57;;;9.40;71.80;;;;;;4973753;28;20419;-72
2021/04/12 14:21:28;;;;;;;0.60;0.60;;;9.80;71.20;;;;;;4954421;28;20556;-70
2021/04/12 14:23:53;;;;;;;3.53;0.73;;;10.00;71.10;;;;;;4954330;29;20039;-70
2021/04/12 14:26:45;;;;;;;1.50;0.55;;;10.00;71.30;;;;;;4954184;29;20039;-71
2021/04/12 14:29:39;;;;;;;0.57;0.57;;;10.10;71.40;;;;;;4945664;28;20035;-70
2021/04/12 14:32:15;;;;;;;0.55;0.55;;;10.20;71.40;;;;;;4953964;29;20544;-69
2021/04/12 14:35:00;;;;;;;0.57;0.57;;;10.50;70.80;;;;;;4953981;29;20424;-71
2021/04/12 14:37:31;;;;;;;0.70;0.70;;;10.60;70.40;;;;;;4954199;29;20035;-71
2021/04/12 14:40:18;;;;;;;0.68;0.60;;;10.70;71.40;;;;;;4953792;28;20122;-71
2021/04/12 14:42:52;;;;;;;0.80;0.80;;;10.60;70.50;;;;;;5000407;28;20037;-70